Time;durP1;ratioP1;P1;durP2;ratioP2;P2;SDS_P1;SDS_P2;PMS_P1;PMS_P2;Temp;Humidity;BMP_temperature;BMP_pressure;BME280_temperature;BME280_humidity;BME280_pressure;Samples;Min_cycle;Max_cycle;Signal;HPM_P1;HPM_P2
2023/03/27 00:01:10;;;;;;;0.10;0.10;;;;;;;4.37;88.95;97892.03;5002583;28;20077;-71
2023/03/27 00:03:36;;;;;;;0.10;0.10;;;;;;;4.30;88.71;97888.03;4970653;28;20436;-71
2023/03/27 00:06:05;;;;;;;0.10;0.10;;;;;;;4.15;89.00;97881.59;4958448;28;20042;-68
2023/03/27 00:08:32;;;;;;;0.10;0.10;;;;;;;4.15;89.31;97887.03;4985156;28;20068;-68
2023/03/27 00:10:59;;;;;;;0.10;0.10;;;;;;;4.17;89.50;97887.53;4984711;28;20229;-68
2023/03/27 00:13:26;;;;;;;0.10;0.10;;;;;;;4.14;89.17;97880.00;4984444;28;20518;-68
2023/03/27 00:15:54;;;;;;;0.10;0.10;;;;;;;4.13;89.13;97864.81;4984372;28;20074;-67
2023/03/27 00:18:22;;;;;;;0.10;0.10;;;;;;;4.22;89.02;97884.81;4982095;28;20145;-68
2023/03/27 00:20:48;;;;;;;0.10;0.10;;;;;;;4.23;88.86;97886.41;4981472;28;20062;-68
2023/03/27 00:23:15;;;;;;;0.10;0.10;;;;;;;4.15;88.92;97880.78;4986475;28;20521;-68
2023/03/27 00:25:41;;;;;;;0.10;0.10;;;;;;;4.21;88.78;97887.78;4984584;28;20046;-68
2023/03/27 00:28:07;;;;;;;0.10;0.10;;;;;;;4.22;88.70;97892.13;4984441;28;20585;-67
2023/03/27 00:30:34;;;;;;;0.10;0.10;;;;;;;4.20;88.44;97900.50;4966036;28;20054;-67
2023/03/27 00:33:01;;;;;;;0.10;0.10;;;;;;;4.17;88.75;97898.38;4968310;28;20068;-67
2023/03/27 00:35:29;;;;;;;0.10;0.10;;;;;;;4.15;88.48;97894.31;4985205;28;20561;-67
2023/03/27 00:37:57;;;;;;;0.10;0.10;;;;;;;4.16;88.53;97893.22;4983348;28;20047;-67
2023/03/27 00:40:24;;;;;;;0.10;0.10;;;;;;;4.16;88.31;97898.63;4982688;28;20425;-67
2023/03/27 00:42:51;;;;;;;0.10;0.10;;;;;;;4.13;88.33;97902.69;4982036;28;20050;-68
2023/03/27 00:45:19;;;;;;;0.10;0.10;;;;;;;4.08;88.14;97900.03;4950784;28;20120;-67
2023/03/27 00:47:47;;;;;;;0.10;0.10;;;;;;;4.08;88.54;97905.44;4983421;28;20132;-67
2023/03/27 00:50:17;;;;;;;0.10;0.10;;;;;;;4.10;88.46;97903.25;4966336;28;20050;-67
2023/03/27 00:52:49;;;;;;;0.10;0.10;;;;;;;4.07;88.56;97898.41;4981960;28;20058;-68
2023/03/27 00:55:19;;;;;;;0.10;0.10;;;;;;;4.14;88.46;97900.81;4986530;28;20402;-67
2023/03/27 00:57:50;;;;;;;0.10;0.10;;;;;;;4.08;88.54;97900.84;4984618;28;20426;-68
2023/03/27 01:00:16;;;;;;;0.10;0.10;;;;;;;4.15;88.45;97905.13;4989491;28;20482;-68
2023/03/27 01:02:47;;;;;;;0.10;0.10;;;;;;;4.14;88.42;97911.63;4988646;28;20500;-68
2023/03/27 01:05:14;;;;;;;0.10;0.10;;;;;;;4.08;88.36;97897.31;4990464;28;20050;-67
2023/03/27 01:07:42;;;;;;;0.10;0.10;;;;;;;4.04;88.52;97899.75;4971896;28;20073;-68
2023/03/27 01:10:13;;;;;;;0.10;0.10;;;;;;;3.97;88.47;97902.78;4988795;28;20515;-68
2023/03/27 01:12:50;;;;;;;0.10;0.10;;;;;;;3.92;88.93;97918.25;4984269;28;20061;-68
2023/03/27 01:15:31;;;;;;;0.10;0.10;;;;;;;3.92;89.24;97908.22;5007050;28;20052;-68
2023/03/27 01:18:11;;;;;;;0.10;0.10;;;;;;;3.81;89.06;97893.09;5006796;28;20120;-68
2023/03/27 01:21:23;;;;;;;0.10;0.10;;;;;;;3.92;88.84;97916.31;5006500;28;20053;-68
2023/03/27 01:24:19;;;;;;;0.10;0.10;;;;;;;3.92;88.57;97912.81;5002638;28;20521;-67
2023/03/27 01:27:15;;;;;;;0.10;0.10;;;;;;;3.96;88.38;97908.47;4984955;28;20072;-68
2023/03/27 01:29:50;;;;;;;0.10;0.10;;;;;;;3.90;88.59;97899.56;4969302;28;20105;-67
2023/03/27 01:33:03;;;;;;;0.10;0.10;;;;;;;4.05;88.35;97903.28;4987930;28;20465;-67
2023/03/27 01:39:19;;;;;;;0.10;0.10;;;;;;;3.96;87.62;97906.56;4988152;28;20074;-71
2023/03/27 01:42:10;;;;;;;0.10;0.10;;;;;;;3.93;87.89;97909.03;4987730;28;20042;-71
2023/03/27 01:45:04;;;;;;;0.10;0.10;;;;;;;3.90;88.14;97898.75;4989608;28;20054;-71
2023/03/27 01:47:40;;;;;;;0.10;0.10;;;;;;;3.96;87.80;97901.16;4986211;28;20180;-71
2023/03/27 01:50:14;;;;;;;0.10;0.10;;;;;;;3.98;88.15;97903.59;4984726;28;20446;-70
2023/03/27 01:52:46;;;;;;;0.10;0.10;;;;;;;3.94;88.05;97897.91;4986292;28;20101;-68
2023/03/27 01:55:18;;;;;;;0.10;0.10;;;;;;;3.92;88.31;97904.72;4968881;28;20051;-68
2023/03/27 01:57:50;;;;;;;0.10;0.10;;;;;;;3.87;88.51;97902.84;5002253;28;20043;-68
2023/03/27 02:00:20;;;;;;;0.10;0.10;;;;;;;3.81;88.74;97906.63;4985403;28;20072;-68
2023/03/27 02:02:51;;;;;;;0.10;0.10;;;;;;;3.79;88.77;97906.09;4987662;28;20054;-67
2023/03/27 02:05:22;;;;;;;0.10;0.10;;;;;;;3.75;88.80;97903.16;4984987;28;20061;-69
2023/03/27 02:07:53;;;;;;;0.10;0.10;;;;;;;3.68;89.31;97908.03;5000005;28;20328;-68
2023/03/27 02:10:24;;;;;;;0.10;0.10;;;;;;;3.65;89.34;97906.69;5004852;28;20124;-68
2023/03/27 02:12:56;;;;;;;0.10;0.10;;;;;;;3.54;89.52;97905.13;4987359;28;20081;-67
2023/03/27 02:15:26;;;;;;;0.10;0.10;;;;;;;3.53;89.99;97906.22;5006769;28;20042;-68
2023/03/27 02:18:03;;;;;;;0.10;0.10;;;;;;;3.46;90.31;97905.66;5004761;28;20624;-68
2023/03/27 02:20:30;;;;;;;0.10;0.10;;;;;;;3.55;90.22;97921.03;4971726;28;20339;-68
2023/03/27 02:22:59;;;;;;;0.10;0.10;;;;;;;3.55;90.39;97917.53;5003572;28;20073;-68
2023/03/27 02:25:28;;;;;;;0.10;0.10;;;;;;;3.65;90.42;97920.19;5004796;28;20464;-68
2023/03/27 02:28:08;;;;;;;0.10;0.10;;;;;;;3.79;89.91;97912.34;5003986;28;20045;-68
2023/03/27 02:30:39;;;;;;;0.10;0.10;;;;;;;3.90;89.73;97915.78;4986750;28;20108;-68
2023/03/27 02:33:17;;;;;;;0.10;0.10;;;;;;;4.06;89.12;97923.84;5005155;28;20046;-69
2023/03/27 02:35:50;;;;;;;0.10;0.10;;;;;;;4.11;88.85;97921.09;5003828;28;20057;-66
2023/03/27 02:38:22;;;;;;;0.10;0.10;;;;;;;4.14;88.54;97927.84;5006590;28;20057;-68
2023/03/27 02:40:58;;;;;;;0.10;0.10;;;;;;;4.07;88.06;97915.47;5003618;28;20054;-66
2023/03/27 02:43:52;;;;;;;0.10;0.10;;;;;;;3.99;88.21;97912.53;5005849;28;20049;-68
2023/03/27 02:46:34;;;;;;;0.10;0.10;;;;;;;3.92;88.50;97924.44;4989386;28;20034;-68
2023/03/27 02:49:04;;;;;;;0.10;0.10;;;;;;;3.87;88.67;97910.94;5003091;28;20368;-68
2023/03/27 02:51:35;;;;;;;0.10;0.10;;;;;;;3.76;89.04;97904.78;5006785;28;20510;-68
2023/03/27 02:54:07;;;;;;;0.13;0.13;;;;;;;3.73;89.55;97913.41;5005546;28;20057;-68
2023/03/27 02:56:38;;;;;;;0.10;0.10;;;;;;;3.74;89.83;97915.03;4988488;28;20052;-68
2023/03/27 02:59:09;;;;;;;0.10;0.10;;;;;;;3.92;89.68;97919.03;5005183;28;20528;-68
2023/03/27 03:01:40;;;;;;;0.10;0.10;;;;;;;4.02;89.45;97920.09;4986758;28;20056;-68
2023/03/27 03:04:21;;;;;;;0.10;0.10;;;;;;;4.02;89.13;97928.19;5007458;28;20124;-68
2023/03/27 03:07:08;;;;;;;0.10;0.10;;;;;;;4.09;88.79;97929.50;5004970;28;20120;-72
2023/03/27 03:09:36;;;;;;;0.10;0.10;;;;;;;4.11;88.42;97938.16;4989427;28;20103;-72
2023/03/27 03:12:02;;;;;;;0.10;0.10;;;;;;;4.06;88.25;97940.88;5006102;28;20045;-72
2023/03/27 03:14:44;;;;;;;0.10;0.10;;;;;;;4.01;88.38;97940.91;4989349;28;20061;-72
2023/03/27 03:17:10;;;;;;;0.10;0.10;;;;;;;4.07;88.38;97939.81;5007861;28;20423;-71
2023/03/27 03:19:37;;;;;;;0.10;0.10;;;;;;;4.08;88.56;97936.00;5006108;28;20597;-71
2023/03/27 03:22:03;;;;;;;0.10;0.10;;;;;;;4.07;87.51;97942.50;4997400;28;20058;-72
2023/03/27 03:24:31;;;;;;;0.10;0.10;;;;;;;3.93;87.88;97938.78;4966657;28;20161;-71
2023/03/27 03:26:58;;;;;;;0.10;0.10;;;;;;;3.93;88.01;97944.97;4983971;28;20767;-71
2023/03/27 03:29:28;;;;;;;;;;;;;;;3.94;88.13;97940.41;4985446;28;20298;-72
2023/03/27 03:32:12;;;;;;;0.10;0.10;;;;;;;3.90;87.82;97944.72;4984406;28;19926;-72
2023/03/27 03:34:40;;;;;;;;;;;;;;;3.77;88.00;97955.06;4992539;28;20704;-73
2023/03/27 03:37:11;;;;;;;0.10;0.10;;;;;;;3.57;88.59;97949.69;4992204;28;19925;-72
2023/03/27 03:39:39;;;;;;;0.10;0.10;;;;;;;3.44;89.18;97945.66;4969954;28;20046;-72
2023/03/27 03:42:06;;;;;;;0.10;0.10;;;;;;;3.42;89.76;97955.94;4985736;28;20391;-72
2023/03/27 03:44:33;;;;;;;0.10;0.10;;;;;;;3.44;90.04;97943.78;4985106;28;20054;-71
2023/03/27 03:47:07;;;;;;;0.10;0.10;;;;;;;3.39;90.17;97943.78;4986859;28;20042;-72
2023/03/27 03:49:36;;;;;;;0.10;0.10;;;;;;;3.44;90.13;97949.19;4968474;28;20074;-72
2023/03/27 03:52:02;;;;;;;0.10;0.10;;;;;;;3.51;90.16;97944.31;4984544;28;20053;-71
2023/03/27 03:54:29;;;;;;;0.10;0.10;;;;;;;3.58;90.30;97946.72;4984883;28;20054;-72
2023/03/27 03:56:57;;;;;;;0.10;0.10;;;;;;;3.62;89.76;97949.69;4956842;28;20076;-72
2023/03/27 03:59:23;;;;;;;0.10;0.10;;;;;;;3.63;89.69;97949.41;5003930;28;20104;-67
2023/03/27 04:02:16;;;;;;;0.10;0.10;;;;;;;3.67;89.51;97958.59;4988043;28;20052;-68
2023/03/27 04:04:44;;;;;;;0.10;0.10;;;;;;;3.67;89.19;97969.41;5004411;28;20048;-68
2023/03/27 04:07:12;;;;;;;0.10;0.10;;;;;;;3.63;88.97;97959.41;4985892;28;20077;-68
2023/03/27 04:09:44;;;;;;;0.10;0.10;;;;;;;3.59;89.05;97959.16;4994580;28;20136;-71
2023/03/27 04:12:25;;;;;;;0.10;0.10;;;;;;;3.55;89.14;97969.69;4984840;28;20070;-71
2023/03/27 04:14:56;;;;;;;0.10;0.10;;;;;;;3.50;89.31;97975.13;4988452;28;20111;-68
2023/03/27 04:17:44;;;;;;;0.10;0.10;;;;;;;3.44;89.50;97978.09;4989388;28;20095;-68
2023/03/27 04:20:12;;;;;;;0.10;0.10;;;;;;;3.29;89.41;97960.81;4970214;28;20056;-67
2023/03/27 04:22:45;;;;;;;0.38;0.20;;;;;;;3.17;90.13;97958.41;5005293;28;20144;-67
2023/03/27 04:25:14;;;;;;;0.10;0.10;;;;;;;3.19;90.64;97966.22;4988015;28;20128;-68
2023/03/27 04:27:42;;;;;;;0.10;0.10;;;;;;;3.28;90.87;97956.50;4986539;28;20137;-69
2023/03/27 04:30:21;;;;;;;0.00;0.00;;;;;;;3.46;90.55;97951.59;4981887;28;20089;-68
2023/03/27 04:33:07;;;;;;;0.10;0.10;;;;;;;3.57;90.19;97946.97;4982146;28;20058;-68
2023/03/27 04:35:52;;;;;;;0.10;0.10;;;;;;;3.75;89.92;97942.88;5002835;28;20072;-68
2023/03/27 04:38:20;;;;;;;0.10;0.10;;;;;;;3.88;89.42;97942.31;5003572;28;20046;-68
2023/03/27 04:40:51;;;;;;;0.10;0.10;;;;;;;3.94;89.15;97949.31;4975119;28;20046;-69
2023/03/27 04:43:17;;;;;;;0.10;0.10;;;;;;;3.96;88.75;97941.72;4978366;28;20053;-69
2023/03/27 04:45:46;;;;;;;0.10;0.10;;;;;;;3.94;88.29;97940.41;4984599;28;20046;-69
2023/03/27 04:48:15;;;;;;;0.10;0.10;;;;;;;3.80;88.54;97932.88;4967054;28;20562;-69
2023/03/27 04:50:48;;;;;;;0.10;0.10;;;;;;;3.79;88.75;97942.06;4985839;28;20061;-69
2023/03/27 04:53:28;;;;;;;0.10;0.10;;;;;;;3.88;88.72;97942.31;5003056;28;20054;-70
2023/03/27 04:55:56;;;;;;;0.10;0.10;;;;;;;3.92;88.63;97947.97;4966179;28;20219;-69
2023/03/27 04:58:24;;;;;;;0.10;0.10;;;;;;;4.01;88.89;97942.81;4980740;28;20046;-69
2023/03/27 05:00:54;;;;;;;0.10;0.10;;;;;;;4.17;88.44;97947.06;4963734;28;20050;-69
2023/03/27 05:03:39;;;;;;;0.10;0.10;;;;;;;4.34;87.64;97964.84;4983799;28;20050;-70
2023/03/27 05:06:28;;;;;;;0.10;0.10;;;;;;;4.44;86.78;97963.97;4638531;28;10000056;-72
2023/03/27 05:08:55;;;;;;;0.10;0.10;;;;;;;4.49;86.23;97963.94;4981561;28;20046;-71
2023/03/27 05:11:25;;;;;;;0.10;0.10;;;;;;;4.53;85.62;97973.13;4981818;28;20116;-72
2023/03/27 05:13:52;;;;;;;0.10;0.10;;;;;;;4.45;85.27;97966.41;4978870;28;20058;-73
2023/03/27 05:16:23;;;;;;;0.10;0.10;;;;;;;4.33;85.14;97947.78;4983561;28;20058;-78
2023/03/27 05:18:54;;;;;;;0.10;0.10;;;;;;;4.40;85.11;97969.94;4985519;28;20066;-78
2023/03/27 05:21:20;;;;;;;0.10;0.10;;;;;;;4.20;85.23;97954.63;4996707;28;20463;-79
2023/03/27 05:23:47;;;;;;;0.10;0.10;;;;;;;4.22;85.55;97976.00;4977460;28;20080;-78
2023/03/27 05:26:16;;;;;;;0.10;0.10;;;;;;;4.17;85.73;97966.00;4995956;28;20044;-77
2023/03/27 05:28:54;;;;;;;0.10;0.10;;;;;;;4.13;85.76;97973.03;4985788;28;20066;-79
2023/03/27 05:31:21;;;;;;;0.10;0.10;;;;;;;4.15;85.96;97973.59;4959571;28;20407;-79
2023/03/27 05:33:58;;;;;;;0.20;0.20;;;;;;;4.18;85.99;97975.72;4994227;28;20046;-72
2023/03/27 05:36:30;;;;;;;0.13;0.13;;;;;;;4.17;86.10;97976.00;4995318;28;20458;-72
2023/03/27 05:38:57;;;;;;;0.10;0.10;;;;;;;4.21;86.05;97980.56;4985529;28;20420;-72
2023/03/27 05:41:31;;;;;;;0.10;0.10;;;;;;;4.27;85.82;97975.97;4989429;28;20069;-72
2023/03/27 05:43:57;;;;;;;0.10;0.10;;;;;;;4.28;85.91;97982.16;4976151;28;20054;-71
2023/03/27 05:46:24;;;;;;;0.22;0.10;;;;;;;4.25;85.75;97970.81;5003148;28;20054;-72
2023/03/27 05:48:58;;;;;;;0.10;0.10;;;;;;;4.25;85.69;97970.81;5003780;28;20054;-71
2023/03/27 05:51:25;;;;;;;0.10;0.10;;;;;;;4.28;85.77;97982.16;4989581;28;20045;-72
2023/03/27 05:53:51;;;;;;;0.10;0.10;;;;;;;4.27;85.89;97981.38;5005337;28;20301;-72
2023/03/27 05:59:25;;;;;;;0.10;0.10;;;;;;;4.29;86.12;97984.59;5004063;28;20556;-72
2023/03/27 06:02:17;;;;;;;0.10;0.10;;;;;;;4.34;86.29;97975.66;5005473;28;20164;-71
2023/03/27 06:04:51;;;;;;;0.10;0.10;;;;;;;4.33;86.54;97974.84;5013281;28;20061;-72
2023/03/27 06:07:46;;;;;;;0.10;0.10;;;;;;;4.31;86.57;97968.91;4988756;28;20189;-72
2023/03/27 06:10:16;;;;;;;0.10;0.10;;;;;;;4.42;86.69;97983.19;4986677;28;20089;-72
2023/03/27 06:12:43;;;;;;;0.25;0.13;;;;;;;4.44;86.90;97986.41;4988295;28;20046;-72
2023/03/27 06:15:25;;;;;;;0.10;0.10;;;;;;;4.50;86.89;97993.44;4991096;28;20046;-78
2023/03/27 06:18:03;;;;;;;0.10;0.10;;;;;;;4.51;87.18;97997.75;4993742;28;20132;-78
2023/03/27 06:20:36;;;;;;;0.10;0.10;;;;;;;4.54;87.19;97999.09;5000266;28;20541;-78
2023/03/27 06:23:05;;;;;;;0.10;0.10;;;;;;;4.53;87.18;97992.88;4972892;28;20604;-72
2023/03/27 06:25:35;;;;;;;0.10;0.10;;;;;;;4.66;86.87;98010.38;4988533;28;20059;-71
2023/03/27 06:28:20;;;;;;;0.10;0.10;;;;;;;4.67;86.76;98006.59;4987974;28;20532;-78
2023/03/27 06:30:49;;;;;;;0.10;0.10;;;;;;;4.70;86.76;98013.34;4993344;28;20516;-79
2023/03/27 06:33:26;;;;;;;0.10;0.10;;;;;;;4.75;86.43;98009.81;4998759;28;20611;-79
2023/03/27 06:35:59;;;;;;;0.10;0.10;;;;;;;4.66;86.33;98002.25;5004239;28;20042;-72
2023/03/27 06:38:36;;;;;;;0.10;0.10;;;;;;;4.65;86.52;98005.25;5002798;28;20042;-79
2023/03/27 06:41:03;;;;;;;0.10;0.10;;;;;;;4.57;86.48;98001.25;4985903;28;20055;-78
2023/03/27 06:43:59;;;;;;;0.10;0.10;;;;;;;4.57;86.73;98012.06;4972089;28;20085;-78
2023/03/27 06:46:56;;;;;;;0.20;0.20;;;;;;;4.58;87.00;98018.28;4998175;28;20429;-78
2023/03/27 06:49:47;;;;;;;0.10;0.10;;;;;;;4.55;87.38;98014.25;4998455;28;20042;-72
2023/03/27 06:52:18;;;;;;;0.15;0.15;;;;;;;4.60;87.71;98018.81;4998677;28;20038;-78
2023/03/27 06:54:46;;;;;;;0.10;0.10;;;;;;;4.60;87.79;98014.22;4999093;28;20124;-78
2023/03/27 06:57:14;;;;;;;0.10;0.10;;;;;;;4.61;87.76;98017.75;4999871;28;20347;-78
2023/03/27 07:00:01;;;;;;;0.10;0.10;;;;;;;4.54;87.79;98021.56;5000620;28;20383;-72
2023/03/27 07:02:46;;;;;;;0.10;0.10;;;;;;;4.52;87.73;98007.50;4995000;28;21060;-72
2023/03/27 07:05:35;;;;;;;0.20;0.20;;;;;;;4.57;88.01;98012.06;4997190;28;20046;-72
2023/03/27 07:08:02;;;;;;;0.10;0.10;;;;;;;4.74;87.68;98016.31;4986768;28;20043;-72
2023/03/27 07:10:32;;;;;;;0.20;0.20;;;;;;;4.94;87.32;98020.78;4957321;28;20137;-73
2023/03/27 07:13:00;;;;;;;0.20;0.20;;;;;;;5.15;86.84;98023.34;5008118;28;20059;-73
2023/03/27 07:15:26;;;;;;;0.20;0.20;;;;;;;5.29;86.05;98015.38;4999615;28;20449;-72
2023/03/27 07:17:56;;;;;;;0.20;0.20;;;;;;;5.31;85.27;98014.00;4999519;28;20518;-72
2023/03/27 07:20:26;;;;;;;0.20;0.20;;;;;;;5.34;84.94;98009.94;4998190;28;20042;-73
2023/03/27 07:22:56;;;;;;;0.20;0.20;;;;;;;5.36;84.42;98003.13;4982748;28;20109;-79
2023/03/27 07:25:45;;;;;;;0.20;0.20;;;;;;;5.56;83.87;98012.19;4996865;28;20050;-79
2023/03/27 07:28:19;;;;;;;0.17;0.17;;;;;;;5.67;83.47;98002.03;4964781;28;20092;-79
2023/03/27 07:30:47;;;;;;;0.20;0.20;;;;;;;5.75;83.08;98008.75;4990813;28;20579;-79
2023/03/27 07:33:20;;;;;;;0.20;0.20;;;;;;;5.89;83.08;98006.16;4996142;28;20043;-79
2023/03/27 07:35:47;;;;;;;0.20;0.20;;;;;;;5.93;82.07;98018.03;4989373;28;20057;-79
2023/03/27 07:38:35;;;;;;;0.10;0.10;;;;;;;5.62;81.78;97975.78;5022601;28;20046;-72
2023/03/27 07:41:32;;;;;;;0.20;0.20;;;;;;;5.69;82.27;97999.84;5006197;28;20089;-78
2023/03/27 07:43:58;;;;;;;0.10;0.10;;;;;;;5.81;82.10;98008.41;5009173;28;20046;-78
2023/03/27 07:46:29;;;;;;;0.10;0.10;;;;;;;5.67;82.08;97974.91;4981919;28;20042;-78
2023/03/27 07:48:59;;;;;;;0.20;0.20;;;;;;;5.70;81.97;97957.25;5005705;28;20042;-79
2023/03/27 07:51:26;;;;;;;0.10;0.10;;;;;;;6.02;81.21;98004.69;4999766;28;20042;-79
2023/03/27 07:53:54;;;;;;;0.20;0.20;;;;;;;6.20;81.30;97993.09;4971871;28;20054;-79
2023/03/27 07:56:25;;;;;;;0.20;0.20;;;;;;;6.44;80.04;97988.72;5002501;28;20046;-80
2023/03/27 07:59:30;;;;;;;0.20;0.20;;;;;;;6.86;78.83;98005.25;5007551;28;20050;-79
2023/03/27 08:02:02;;;;;;;0.20;0.20;;;;;;;6.89;77.92;98008.19;4991572;28;20135;-79
2023/03/27 08:04:29;;;;;;;0.17;0.17;;;;;;;6.85;77.86;98012.59;4988846;28;20252;-78
2023/03/27 08:07:04;;;;;;;0.20;0.20;;;;;;;6.81;77.40;98006.13;5005950;28;20050;-78
2023/03/27 08:09:30;;;;;;;0.10;0.10;;;;;;;6.69;77.42;98009.28;4990353;28;20067;-78
2023/03/27 08:11:57;;;;;;;0.10;0.10;;;;;;;6.65;77.81;98014.50;4974250;28;20456;-78
2023/03/27 08:14:27;;;;;;;0.13;0.13;;;;;;;6.61;78.20;98012.66;4972213;28;20054;-78
2023/03/27 08:16:56;;;;;;;0.20;0.20;;;;;;;6.50;78.28;98017.41;4990420;28;20054;-78
2023/03/27 08:19:25;;;;;;;0.20;0.20;;;;;;;6.41;78.66;98011.81;5007579;28;20061;-79
2023/03/27 08:21:59;;;;;;;0.10;0.10;;;;;;;6.37;78.82;98017.00;4992346;28;20115;-77
2023/03/27 08:24:26;;;;;;;0.20;0.20;;;;;;;6.36;78.78;98014.63;4986675;28;20050;-77
2023/03/27 08:27:11;;;;;;;0.10;0.10;;;;;;;6.38;78.74;98015.91;4969368;28;20589;-78
2023/03/27 08:29:42;;;;;;;0.10;0.10;;;;;;;6.30;78.58;98019.28;4971926;28;20538;-78
2023/03/27 08:32:12;;;;;;;0.20;0.20;;;;;;;6.28;78.77;98018.78;4970129;28;20053;-78
2023/03/27 08:34:45;;;;;;;0.10;0.10;;;;;;;6.31;78.74;98014.66;4969978;28;20050;-79
2023/03/27 08:37:19;;;;;;;0.10;0.10;;;;;;;6.30;78.65;98019.28;4968105;28;20149;-78
2023/03/27 08:40:12;;;;;;;0.20;0.20;;;;;;;6.37;78.14;98008.09;4975069;28;20086;-78
2023/03/27 08:42:43;;;;;;;0.20;0.20;;;;;;;6.60;77.49;98017.28;4987514;28;20085;-78
2023/03/27 08:45:18;;;;;;;0.20;0.20;;;;;;;6.86;76.71;98010.69;4976180;28;20473;-78
2023/03/27 08:47:54;;;;;;;0.20;0.20;;;;;;;7.13;75.26;98004.56;5006144;28;20447;-78
2023/03/27 08:50:32;;;;;;;0.20;0.20;;;;;;;7.52;74.20;98008.84;4997030;28;20568;-72
2023/03/27 08:53:29;;;;;;;0.20;0.20;;;;;;;7.99;72.08;98008.00;4987255;28;20058;-79
2023/03/27 08:55:57;;;;;;;0.30;0.30;;;;;;;8.47;70.08;98004.03;4999951;28;20433;-78
2023/03/27 08:58:33;;;;;;;0.20;0.20;;;;;;;8.49;68.70;98022.81;4975170;28;20469;-72
2023/03/27 09:01:21;;;;;;;0.20;0.20;;;;;;;8.17;69.60;98025.34;5006192;28;20121;-72
2023/03/27 09:03:54;;;;;;;0.20;0.20;;;;;;;7.82;70.49;98029.56;5004772;28;20049;-71
2023/03/27 09:06:25;;;;;;;0.20;0.20;;;;;;;7.73;71.42;98024.78;4997748;28;20046;-78
2023/03/27 09:09:02;;;;;;;0.40;0.40;;;;;;;8.26;70.70;98027.38;4975063;28;20045;-79
2023/03/27 09:11:38;;;;;;;0.30;0.30;;;;;;;8.85;68.54;98024.00;5002240;28;20046;-78
2023/03/27 09:14:13;;;;;;;0.30;0.30;;;;;;;10.30;64.91;98028.56;5002332;28;20312;-78
2023/03/27 09:16:48;;;;;;;0.25;0.25;;;;;;;10.34;62.35;98030.38;4988445;28;20042;-78
2023/03/27 09:19:35;;;;;;;0.40;0.40;;;;;;;10.32;62.36;98018.94;5018575;28;20050;-80
2023/03/27 09:22:08;;;;;;;0.20;0.20;;;;;;;10.99;59.45;98024.38;5000874;28;20085;-78
2023/03/27 09:24:47;;;;;;;0.30;0.30;;;;;;;10.31;60.50;98032.91;5001932;28;20053;-78
2023/03/27 09:27:36;;;;;;;0.20;0.20;;;;;;;10.49;60.78;98031.09;5005565;28;20054;-78
2023/03/27 09:30:27;;;;;;;0.20;0.20;;;;;;;9.95;61.69;98047.56;4997105;28;20575;-72
2023/03/27 09:33:02;;;;;;;0.20;0.20;;;;;;;9.54;63.22;98052.91;4999213;28;20053;-72
2023/03/27 09:35:29;;;;;;;0.20;0.20;;;;;;;9.23;64.13;98042.75;4997938;28;20120;-72
2023/03/27 09:37:59;;;;;;;0.20;0.20;;;;;;;8.92;65.25;98054.34;4998261;28;20058;-72
2023/03/27 09:40:32;;;;;;;0.20;0.20;;;;;;;8.96;65.48;98051.81;4997606;28;20046;-72
2023/03/27 09:43:16;;;;;;;0.30;0.30;;;;;;;8.98;65.28;98041.41;4968719;28;20100;-72
2023/03/27 09:45:45;;;;;;;0.20;0.20;;;;;;;9.05;64.92;98047.25;4973959;28;20509;-73
2023/03/27 09:48:21;;;;;;;0.20;0.20;;;;;;;8.88;65.43;98065.06;4989075;28;20050;-72
2023/03/27 09:50:48;;;;;;;0.20;0.20;;;;;;;8.66;66.02;98071.25;4978037;28;20049;-72
2023/03/27 09:53:34;;;;;;;0.30;0.30;;;;;;;8.68;66.50;98047.25;4991990;28;20072;-72
2023/03/27 09:56:21;;;;;;;0.25;0.25;;;;;;;10.08;62.50;98069.28;4986805;28;20053;-72
2023/03/27 09:58:50;;;;;;;0.20;0.20;;;;;;;9.75;61.38;98060.59;4991033;28;20132;-72
2023/03/27 10:01:28;;;;;;;0.20;0.20;;;;;;;9.11;63.18;98051.47;4996761;28;20054;-72
2023/03/27 10:04:11;;;;;;;0.20;0.20;;;;;;;9.32;63.41;98064.63;4990975;28;20137;-72
2023/03/27 10:06:43;;;;;;;0.38;0.30;;;;;;;10.44;61.87;98058.53;5007469;28;20541;-78
2023/03/27 10:09:23;;;;;;;0.70;0.70;;;;;;;11.34;58.50;98049.03;5008724;28;20587;-78
2023/03/27 10:12:00;;;;;;;0.50;0.50;;;;;;;12.56;55.37;98060.00;4975264;28;20080;-79
2023/03/27 10:14:31;;;;;;;0.40;0.30;;;;;;;12.54;53.32;98054.03;5005852;28;20046;-78
2023/03/27 10:16:58;;;;;;;0.80;0.80;;;;;;;13.14;52.58;98059.47;4987651;28;20057;-79
2023/03/27 10:19:29;;;;;;;0.70;0.70;;;;;;;14.86;49.17;98059.44;4970872;28;20394;-79
2023/03/27 10:22:02;;;;;;;0.30;0.30;;;;;;;14.66;47.29;98071.34;4953872;28;20272;-79
2023/03/27 10:24:32;;;;;;;0.20;0.20;;;;;;;13.05;51.16;98066.94;4987644;28;20120;-79
2023/03/27 10:27:27;;;;;;;0.40;0.40;;;;;;;11.81;53.80;98069.41;4988283;28;20049;-78
2023/03/27 10:30:30;;;;;;;0.50;0.50;;;;;;;11.77;54.91;98074.75;4990313;28;20054;-78
2023/03/27 10:33:29;;;;;;;0.30;0.30;;;;;;;12.13;53.82;98072.75;4973480;28;20623;-78
2023/03/27 10:36:10;;;;;;;0.30;0.30;;;;;;;11.58;54.82;98077.03;4982316;28;20033;-78
2023/03/27 10:38:40;;;;;;;0.30;0.30;;;;;;;10.87;56.88;98074.25;5006775;28;20108;-78
2023/03/27 10:41:22;;;;;;;0.30;0.30;;;;;;;10.42;57.84;98072.53;5006635;28;20041;-78
2023/03/27 10:43:53;;;;;;;0.30;0.30;;;;;;;10.86;56.73;98072.63;5009711;28;20431;-78
2023/03/27 10:46:24;;;;;;;0.43;0.43;;;;;;;10.79;57.34;98083.25;5008034;28;20050;-79
2023/03/27 10:49:01;;;;;;;0.20;0.20;;;;;;;10.68;56.94;98081.94;4989470;28;20045;-78
2023/03/27 10:51:38;;;;;;;0.20;0.20;;;;;;;10.17;58.49;98076.72;4986776;28;20073;-78
2023/03/27 10:54:14;;;;;;;0.20;0.20;;;;;;;10.12;59.13;98080.41;4997594;28;20054;-77
2023/03/27 10:56:56;;;;;;;0.30;0.30;;;;;;;10.41;59.07;98081.03;5008306;28;20413;-78
2023/03/27 10:59:29;;;;;;;0.30;0.30;;;;;;;10.61;58.75;98071.44;4992273;28;20046;-78
2023/03/27 11:02:01;;;;;;;0.80;0.80;;;;;;;11.67;56.55;98077.81;4991026;28;20056;-73
2023/03/27 11:04:41;;;;;;;0.30;0.30;;;;;;;13.49;50.22;98080.34;4988601;28;20072;-73
2023/03/27 11:07:16;;;;;;;0.40;0.40;;;;;;;12.62;51.22;98083.31;5005201;28;20050;-73
2023/03/27 11:09:55;;;;;;;0.30;0.30;;;;;;;11.82;53.59;98083.91;4988938;28;20513;-72
2023/03/27 11:12:26;;;;;;;0.20;0.20;;;;;;;11.19;56.03;98085.06;5007270;28;20080;-73
2023/03/27 11:15:03;;;;;;;0.20;0.20;;;;;;;10.76;57.64;98092.06;5003871;28;20566;-72
2023/03/27 11:17:40;;;;;;;0.20;0.20;;;;;;;10.44;59.15;98099.50;5005142;28;20099;-72
2023/03/27 11:20:34;;;;;;;0.20;0.20;;;;;;;9.92;60.54;98103.56;5004906;28;20045;-72
2023/03/27 11:23:39;;;;;;;0.10;0.10;;;;;;;9.32;62.20;98091.91;4997852;28;20052;-72
2023/03/27 11:26:31;;;;;;;0.20;0.20;;;;;;;9.05;63.43;98105.31;5005168;28;20070;-72
2023/03/27 11:29:04;;;;;;;0.20;0.20;;;;;;;8.88;64.35;98110.59;5003722;28;20046;-72
2023/03/27 11:31:45;;;;;;;0.20;0.20;;;;;;;8.76;64.64;98102.94;4986906;28;20054;-71
2023/03/27 11:34:19;;;;;;;0.10;0.10;;;;;;;8.80;64.96;98131.19;4988532;28;20481;-71
2023/03/27 11:36:55;;;;;;;0.20;0.20;;;;;;;8.55;65.25;98102.53;4989226;28;20069;-71
2023/03/27 11:39:37;;;;;;;0.10;0.10;;;;;;;8.45;66.02;98133.47;4989716;28;20050;-71
2023/03/27 11:42:13;;;;;;;0.10;0.10;;;;;;;8.22;66.51;98125.16;5002383;28;20056;-72
2023/03/27 11:44:40;;;;;;;0.20;0.20;;;;;;;8.03;67.40;98126.03;4985370;28;20516;-77
2023/03/27 11:47:22;;;;;;;0.20;0.20;;;;;;;7.98;67.68;98136.22;5000631;28;20053;-77
2023/03/27 11:50:04;;;;;;;0.20;0.20;;;;;;;7.95;68.05;98130.25;5004406;28;20132;-78
2023/03/27 11:52:45;;;;;;;0.15;0.15;;;;;;;8.13;68.47;98133.22;5005383;28;20065;-77
2023/03/27 11:55:23;;;;;;;0.17;0.17;;;;;;;8.18;68.89;98132.34;5005537;28;20092;-77
2023/03/27 11:58:05;;;;;;;0.10;0.10;;;;;;;8.18;69.48;98135.84;4988599;28;20140;-77
2023/03/27 12:00:48;;;;;;;0.10;0.10;;;;;;;8.22;69.38;98136.06;4986446;28;20080;-72
2023/03/27 12:03:54;;;;;;;0.10;0.10;;;;;;;8.29;69.09;98147.38;5003382;28;20502;-72
2023/03/27 12:06:33;;;;;;;0.20;0.20;;;;;;;8.15;68.92;98133.72;4987250;28;20551;-72
2023/03/27 12:09:22;;;;;;;0.10;0.10;;;;;;;7.92;70.05;98133.59;4988417;28;20089;-71
2023/03/27 12:12:29;;;;;;;0.10;0.10;;;;;;;7.99;70.02;98140.53;4985629;28;20073;-72
2023/03/27 12:15:12;;;;;;;0.20;0.20;;;;;;;7.99;70.39;98141.38;4984033;28;20050;-71
2023/03/27 12:17:50;;;;;;;0.10;0.10;;;;;;;7.89;71.11;98145.06;4995110;28;20049;-72
2023/03/27 12:21:07;;;;;;;0.10;0.10;;;;;;;7.66;71.74;98152.25;5005782;28;20077;-72
2023/03/27 12:23:51;;;;;;;0.15;0.15;;;;;;;7.57;72.38;98141.22;4942079;28;20092;-71
2023/03/27 12:27:06;;;;;;;0.10;0.10;;;;;;;7.58;72.36;98144.72;5002209;28;20053;-71